sensor_id;sensor_type;location;lat;lon;timestamp;temperature;humidity
74220;DHT22;62580;54.416;11.120;2022-09-09T00:03:26;20.90;56.70
74220;DHT22;62580;54.416;11.120;2022-09-09T00:13:33;20.90;56.80
74220;DHT22;62580;54.416;11.120;2022-09-09T00:23:38;20.90;56.70
74220;DHT22;62580;54.416;11.120;2022-09-09T00:33:41;20.90;56.80
74220;DHT22;62580;54.416;11.120;2022-09-09T00:43:49;20.90;56.70
74220;DHT22;62580;54.416;11.120;2022-09-09T00:54:19;20.90;56.70
74220;DHT22;62580;54.416;11.120;2022-09-09T01:04:29;20.90;56.60
74220;DHT22;62580;54.416;11.120;2022-09-09T01:14:40;20.90;56.70
74220;DHT22;62580;54.416;11.120;2022-09-09T01:25:05;20.90;56.70
74220;DHT22;62580;54.416;11.120;2022-09-09T01:35:12;20.90;56.80
74220;DHT22;62580;54.416;11.120;2022-09-09T01:45:15;20.90;56.80
74220;DHT22;62580;54.416;11.120;2022-09-09T01:55:22;20.80;56.70
74220;DHT22;62580;54.416;11.120;2022-09-09T02:05:38;20.90;56.80
74220;DHT22;62580;54.416;11.120;2022-09-09T02:15:44;20.80;56.70
74220;DHT22;62580;54.416;11.120;2022-09-09T02:25:48;20.80;56.70
74220;DHT22;62580;54.416;11.120;2022-09-09T02:35:53;20.80;56.70
74220;DHT22;62580;54.416;11.120;2022-09-09T02:46:02;20.80;56.70
74220;DHT22;62580;54.416;11.120;2022-09-09T02:56:09;20.80;56.70
74220;DHT22;62580;54.416;11.120;2022-09-09T03:06:11;20.80;56.70
74220;DHT22;62580;54.416;11.120;2022-09-09T03:16:20;20.80;56.70
74220;DHT22;62580;54.416;11.120;2022-09-09T03:26:20;20.80;56.70
74220;DHT22;62580;54.416;11.120;2022-09-09T03:36:22;20.80;56.80
74220;DHT22;62580;54.416;11.120;2022-09-09T03:46:25;20.80;56.80
74220;DHT22;62580;54.416;11.120;2022-09-09T03:56:27;20.80;56.80
74220;DHT22;62580;54.416;11.120;2022-09-09T04:06:28;20.70;56.70
74220;DHT22;62580;54.416;11.120;2022-09-09T04:16:30;20.70;56.70
74220;DHT22;62580;54.416;11.120;2022-09-09T04:26:30;20.70;56.70
74220;DHT22;62580;54.416;11.120;2022-09-09T04:36:33;20.70;56.70
74220;DHT22;62580;54.416;11.120;2022-09-09T04:46:33;20.70;56.70
74220;DHT22;62580;54.416;11.120;2022-09-09T04:56:35;20.70;56.70
74220;DHT22;62580;54.416;11.120;2022-09-09T05:06:36;20.70;56.80
74220;DHT22;62580;54.416;11.120;2022-09-09T05:16:38;20.70;56.70
74220;DHT22;62580;54.416;11.120;2022-09-09T05:26:39;20.70;56.70
74220;DHT22;62580;54.416;11.120;2022-09-09T05:36:41;20.70;56.80
74220;DHT22;62580;54.416;11.120;2022-09-09T05:46:42;20.70;56.70
74220;DHT22;62580;54.416;11.120;2022-09-09T05:56:44;20.70;56.70
74220;DHT22;62580;54.416;11.120;2022-09-09T06:06:47;20.70;56.70
74220;DHT22;62580;54.416;11.120;2022-09-09T06:16:49;20.70;56.80
74220;DHT22;62580;54.416;11.120;2022-09-09T06:26:49;20.70;56.70
74220;DHT22;62580;54.416;11.120;2022-09-09T06:36:51;20.70;56.80
74220;DHT22;62580;54.416;11.120;2022-09-09T06:46:52;20.70;56.70
74220;DHT22;62580;54.416;11.120;2022-09-09T06:56:54;20.70;56.70
74220;DHT22;62580;54.416;11.120;2022-09-09T07:06:58;20.60;56.60
74220;DHT22;62580;54.416;11.120;2022-09-09T07:17:00;20.60;56.60
74220;DHT22;62580;54.416;11.120;2022-09-09T07:27:00;20.70;56.70
74220;DHT22;62580;54.416;11.120;2022-09-09T07:37:02;20.70;56.70
74220;DHT22;62580;54.416;11.120;2022-09-09T07:47:03;20.60;56.60
74220;DHT22;62580;54.416;11.120;2022-09-09T07:57:05;20.60;56.70
74220;DHT22;62580;54.416;11.120;2022-09-09T08:07:09;20.70;56.80
74220;DHT22;62580;54.416;11.120;2022-09-09T08:17:11;20.60;56.60
74220;DHT22;62580;54.416;11.120;2022-09-09T08:27:11;20.70;56.70
74220;DHT22;62580;54.416;11.120;2022-09-09T08:37:13;20.60;57.20
74220;DHT22;62580;54.416;11.120;2022-09-09T08:47:22;20.60;56.60
74220;DHT22;62580;54.416;11.120;2022-09-09T08:57:28;20.70;56.70
74220;DHT22;62580;54.416;11.120;2022-09-09T09:07:47;20.70;56.70
74220;DHT22;62580;54.416;11.120;2022-09-09T09:17:54;20.70;56.70
74220;DHT22;62580;54.416;11.120;2022-09-09T09:28:02;20.60;56.60
74220;DHT22;62580;54.416;11.120;2022-09-09T09:38:16;20.70;56.60
74220;DHT22;62580;54.416;11.120;2022-09-09T09:48:17;20.60;56.60
74220;DHT22;62580;54.416;11.120;2022-09-09T09:58:19;20.60;56.60
74220;DHT22;62580;54.416;11.120;2022-09-09T10:08:20;20.70;56.70
74220;DHT22;62580;54.416;11.120;2022-09-09T10:18:40;20.70;56.60
74220;DHT22;62580;54.416;11.120;2022-09-09T10:29:02;20.70;56.60
74220;DHT22;62580;54.416;11.120;2022-09-09T10:39:18;20.70;56.60
74220;DHT22;62580;54.416;11.120;2022-09-09T10:49:36;20.70;56.50
74220;DHT22;62580;54.416;11.120;2022-09-09T10:59:46;20.70;56.60
74220;DHT22;62580;54.416;11.120;2022-09-09T11:09:54;20.80;56.60
74220;DHT22;62580;54.416;11.120;2022-09-09T11:19:57;20.80;56.60
74220;DHT22;62580;54.416;11.120;2022-09-09T11:30:15;20.80;56.50
74220;DHT22;62580;54.416;11.120;2022-09-09T11:40:22;20.90;56.50
74220;DHT22;62580;54.416;11.120;2022-09-09T11:50:32;20.90;56.40
74220;DHT22;62580;54.416;11.120;2022-09-09T12:00:37;21.00;56.40
74220;DHT22;62580;54.416;11.120;2022-09-09T12:10:39;21.00;56.40
74220;DHT22;62580;54.416;11.120;2022-09-09T12:20:53;20.90;56.50
74220;DHT22;62580;54.416;11.120;2022-09-09T12:31:00;20.90;56.50
74220;DHT22;62580;54.416;11.120;2022-09-09T12:41:15;20.90;56.50
74220;DHT22;62580;54.416;11.120;2022-09-09T12:51:21;21.00;56.40
74220;DHT22;62580;54.416;11.120;2022-09-09T13:01:27;21.00;56.30
74220;DHT22;62580;54.416;11.120;2022-09-09T13:11:31;21.10;56.40
74220;DHT22;62580;54.416;11.120;2022-09-09T13:21:38;21.10;56.30
74220;DHT22;62580;54.416;11.120;2022-09-09T13:31:39;21.10;56.30
74220;DHT22;62580;54.416;11.120;2022-09-09T13:41:44;21.10;56.30
74220;DHT22;62580;54.416;11.120;2022-09-09T13:51:47;21.10;56.40
74220;DHT22;62580;54.416;11.120;2022-09-09T14:01:49;21.20;56.50
74220;DHT22;62580;54.416;11.120;2022-09-09T14:11:50;21.10;56.60
74220;DHT22;62580;54.416;11.120;2022-09-09T14:21:52;21.10;57.20
74220;DHT22;62580;54.416;11.120;2022-09-09T14:31:53;21.20;56.70
74220;DHT22;62580;54.416;11.120;2022-09-09T14:41:55;21.20;56.80
74220;DHT22;62580;54.416;11.120;2022-09-09T14:51:55;21.20;56.80
74220;DHT22;62580;54.416;11.120;2022-09-09T15:01:57;21.20;56.80
74220;DHT22;62580;54.416;11.120;2022-09-09T15:11:58;21.20;56.80
74220;DHT22;62580;54.416;11.120;2022-09-09T15:22:00;21.20;56.80
74220;DHT22;62580;54.416;11.120;2022-09-09T15:32:01;21.20;56.80
74220;DHT22;62580;54.416;11.120;2022-09-09T15:42:03;21.20;56.80
74220;DHT22;62580;54.416;11.120;2022-09-09T15:52:04;21.30;57.50
74220;DHT22;62580;54.416;11.120;2022-09-09T16:02:06;21.30;57.00
74220;DHT22;62580;54.416;11.120;2022-09-09T16:12:07;21.20;57.10
74220;DHT22;62580;54.416;11.120;2022-09-09T16:22:09;21.20;57.30
74220;DHT22;62580;54.416;11.120;2022-09-09T16:32:10;21.20;57.30
74220;DHT22;62580;54.416;11.120;2022-09-09T16:42:12;21.20;57.40
74220;DHT22;62580;54.416;11.120;2022-09-09T16:52:12;21.20;57.50
74220;DHT22;62580;54.416;11.120;2022-09-09T17:02:14;21.20;57.50
74220;DHT22;62580;54.416;11.120;2022-09-09T17:12:15;21.20;57.50
74220;DHT22;62580;54.416;11.120;2022-09-09T17:22:17;21.20;57.60
74220;DHT22;62580;54.416;11.120;2022-09-09T17:32:18;21.20;57.60
74220;DHT22;62580;54.416;11.120;2022-09-09T17:42:20;21.20;57.60
74220;DHT22;62580;54.416;11.120;2022-09-09T17:52:20;21.20;57.60
74220;DHT22;62580;54.416;11.120;2022-09-09T18:02:22;21.10;57.70
74220;DHT22;62580;54.416;11.120;2022-09-09T18:12:23;21.10;57.70
74220;DHT22;62580;54.416;11.120;2022-09-09T18:22:25;21.20;57.70
74220;DHT22;62580;54.416;11.120;2022-09-09T18:32:25;21.20;57.70
74220;DHT22;62580;54.416;11.120;2022-09-09T18:42:27;21.10;57.70
74220;DHT22;62580;54.416;11.120;2022-09-09T18:52:28;21.10;57.70
74220;DHT22;62580;54.416;11.120;2022-09-09T19:02:30;21.20;57.80
74220;DHT22;62580;54.416;11.120;2022-09-09T19:12:31;21.20;57.80
74220;DHT22;62580;54.416;11.120;2022-09-09T19:22:33;21.10;57.70
74220;DHT22;62580;54.416;11.120;2022-09-09T19:32:33;21.10;57.80
74220;DHT22;62580;54.416;11.120;2022-09-09T19:42:35;21.10;58.10
74220;DHT22;62580;54.416;11.120;2022-09-09T19:52:36;21.20;58.70
74220;DHT22;62580;54.416;11.120;2022-09-09T20:02:38;21.20;59.40
74220;DHT22;62580;54.416;11.120;2022-09-09T20:12:39;21.20;59.10
74220;DHT22;62580;54.416;11.120;2022-09-09T20:22:41;21.20;58.90
74220;DHT22;62580;54.416;11.120;2022-09-09T20:32:41;21.30;59.00
74220;DHT22;62580;54.416;11.120;2022-09-09T20:42:43;21.30;58.90
74220;DHT22;62580;54.416;11.120;2022-09-09T20:52:44;21.30;58.90
74220;DHT22;62580;54.416;11.120;2022-09-09T21:02:47;21.30;58.80
74220;DHT22;62580;54.416;11.120;2022-09-09T21:12:48;21.30;58.70
74220;DHT22;62580;54.416;11.120;2022-09-09T21:22:50;21.30;58.70
74220;DHT22;62580;54.416;11.120;2022-09-09T21:32:52;21.30;58.70
74220;DHT22;62580;54.416;11.120;2022-09-09T21:42:54;21.30;58.70
74220;DHT22;62580;54.416;11.120;2022-09-09T21:52:55;21.30;58.70
74220;DHT22;62580;54.416;11.120;2022-09-09T22:02:57;21.30;58.70
74220;DHT22;62580;54.416;11.120;2022-09-09T22:12:58;21.20;59.50
74220;DHT22;62580;54.416;11.120;2022-09-09T22:23:00;21.20;59.00
74220;DHT22;62580;54.416;11.120;2022-09-09T22:33:01;21.30;59.20
74220;DHT22;62580;54.416;11.120;2022-09-09T22:43:03;21.30;59.10
74220;DHT22;62580;54.416;11.120;2022-09-09T22:53:04;21.30;59.10
74220;DHT22;62580;54.416;11.120;2022-09-09T23:03:06;21.30;59.10
74220;DHT22;62580;54.416;11.120;2022-09-09T23:13:07;21.30;59.10
74220;DHT22;62580;54.416;11.120;2022-09-09T23:23:09;21.30;59.10
74220;DHT22;62580;54.416;11.120;2022-09-09T23:33:09;21.30;59.10
74220;DHT22;62580;54.416;11.120;2022-09-09T23:43:11;21.30;59.10
74220;DHT22;62580;54.416;11.120;2022-09-09T23:53:12;21.30;59.10
